sensor_id;sensor_type;location;lat;lon;timestamp;pressure;altitude;pressure_sealevel;temperature;humidity
29359;BME280;16347;53.232;6.556;2022-07-17T00:02:11;102736.19;;;19.91;46.34
29359;BME280;16347;53.232;6.556;2022-07-17T00:04:39;102733.06;;;19.94;46.16
29359;BME280;16347;53.232;6.556;2022-07-17T00:07:08;102730.16;;;19.87;45.82
29359;BME280;16347;53.232;6.556;2022-07-17T00:09:36;102734.97;;;19.85;46.32
29359;BME280;16347;53.232;6.556;2022-07-17T00:12:05;102730.66;;;19.91;46.33
29359;BME280;16347;53.232;6.556;2022-07-17T00:14:33;102720.44;;;19.91;46.33
29359;BME280;16347;53.232;6.556;2022-07-17T00:17:01;102728.72;;;19.91;46.19
29359;BME280;16347;53.232;6.556;2022-07-17T00:19:29;102720.44;;;19.91;46.12
29359;BME280;16347;53.232;6.556;2022-07-17T00:21:58;102723.25;;;19.83;45.80
29359;BME280;16347;53.232;6.556;2022-07-17T00:24:27;102724.09;;;19.84;45.53
29359;BME280;16347;53.232;6.556;2022-07-17T00:26:55;102725.16;;;19.67;46.09
29359;BME280;16347;53.232;6.556;2022-07-17T00:29:24;102720.31;;;19.69;46.43
29359;BME280;16347;53.232;6.556;2022-07-17T00:31:52;102723.44;;;19.74;45.98
29359;BME280;16347;53.232;6.556;2022-07-17T00:34:20;102724.09;;;19.76;45.89
29359;BME280;16347;53.232;6.556;2022-07-17T00:36:49;102727.53;;;19.78;45.91
29359;BME280;16347;53.232;6.556;2022-07-17T00:39:17;102720.31;;;19.77;45.52
29359;BME280;16347;53.232;6.556;2022-07-17T00:41:46;102723.44;;;19.74;45.54
29359;BME280;16347;53.232;6.556;2022-07-17T00:44:14;102718.25;;;19.71;46.39
29359;BME280;16347;53.232;6.556;2022-07-17T00:46:43;102720.66;;;19.66;46.34
29359;BME280;16347;53.232;6.556;2022-07-17T00:49:11;102723.06;;;19.69;46.53
29359;BME280;16347;53.232;6.556;2022-07-17T00:51:39;102721.16;;;19.45;47.00
29359;BME280;16347;53.232;6.556;2022-07-17T00:54:07;102725.47;;;19.48;47.13
29359;BME280;16347;53.232;6.556;2022-07-17T00:56:36;102727.56;;;19.54;46.63
29359;BME280;16347;53.232;6.556;2022-07-17T00:59:06;102716.19;;;19.57;46.90
29359;BME280;16347;53.232;6.556;2022-07-17T01:01:34;102713.94;;;19.52;46.61
29359;BME280;16347;53.232;6.556;2022-07-17T01:04:03;102715.66;;;19.61;46.71
29359;BME280;16347;53.232;6.556;2022-07-17T01:06:31;102720.50;;;19.59;47.05
29359;BME280;16347;53.232;6.556;2022-07-17T01:08:59;102713.22;;;19.58;46.64
29359;BME280;16347;53.232;6.556;2022-07-17T01:11:27;102710.50;;;19.50;46.72
29359;BME280;16347;53.232;6.556;2022-07-17T01:13:56;102711.88;;;19.46;46.78
29359;BME280;16347;53.232;6.556;2022-07-17T01:16:26;102708.75;;;19.49;47.11
29359;BME280;16347;53.232;6.556;2022-07-17T01:18:55;102702.53;;;19.55;46.84
29359;BME280;16347;53.232;6.556;2022-07-17T01:21:25;102708.78;;;19.57;47.33
29359;BME280;16347;53.232;6.556;2022-07-17T01:23:54;102710.13;;;19.61;47.11
29359;BME280;16347;53.232;6.556;2022-07-17T01:26:22;102709.91;;;19.38;47.59
29359;BME280;16347;53.232;6.556;2022-07-17T01:28:50;102718.19;;;19.38;47.20
29359;BME280;16347;53.232;6.556;2022-07-17T01:31:18;102712.16;;;19.35;47.67
29359;BME280;16347;53.232;6.556;2022-07-17T01:33:47;102717.66;;;19.35;47.63
29359;BME280;16347;53.232;6.556;2022-07-17T01:36:16;102728.91;;;19.41;47.34
29359;BME280;16347;53.232;6.556;2022-07-17T01:38:45;102724.94;;;19.36;47.62
29359;BME280;16347;53.232;6.556;2022-07-17T01:41:13;102734.75;;;19.38;47.89
29359;BME280;16347;53.232;6.556;2022-07-17T01:43:41;102736.13;;;19.26;48.60
29359;BME280;16347;53.232;6.556;2022-07-17T01:46:09;102737.34;;;19.24;48.33
29359;BME280;16347;53.232;6.556;2022-07-17T01:48:37;102730.94;;;19.23;48.55
29359;BME280;16347;53.232;6.556;2022-07-17T01:51:06;102728.19;;;19.23;48.15
29359;BME280;16347;53.232;6.556;2022-07-17T01:53:34;102733.53;;;19.17;48.44
29359;BME280;16347;53.232;6.556;2022-07-17T01:56:04;102730.56;;;19.18;48.87
29359;BME280;16347;53.232;6.556;2022-07-17T01:58:32;102726.97;;;19.10;49.02
29359;BME280;16347;53.232;6.556;2022-07-17T02:01:01;102741.09;;;19.15;48.77
29359;BME280;16347;53.232;6.556;2022-07-17T02:03:29;102737.47;;;19.14;49.13
29359;BME280;16347;53.232;6.556;2022-07-17T02:05:57;102726.63;;;19.13;48.68
29359;BME280;16347;53.232;6.556;2022-07-17T02:08:25;102740.22;;;19.14;48.53
29359;BME280;16347;53.232;6.556;2022-07-17T02:10:53;102741.09;;;19.07;48.70
29359;BME280;16347;53.232;6.556;2022-07-17T02:13:22;102740.75;;;19.10;48.62
29359;BME280;16347;53.232;6.556;2022-07-17T02:15:52;102739.53;;;19.12;48.05
29359;BME280;16347;53.232;6.556;2022-07-17T02:18:23;102736.44;;;19.15;48.50
29359;BME280;16347;53.232;6.556;2022-07-17T02:20:51;102740.56;;;19.03;48.95
29359;BME280;16347;53.232;6.556;2022-07-17T02:23:19;102742.63;;;19.09;49.23
29359;BME280;16347;53.232;6.556;2022-07-17T02:25:48;102739.19;;;19.15;49.08
29359;BME280;16347;53.232;6.556;2022-07-17T02:28:16;102742.47;;;19.19;48.80
29359;BME280;16347;53.232;6.556;2022-07-17T02:30:46;102750.91;;;19.17;48.56
29359;BME280;16347;53.232;6.556;2022-07-17T02:33:15;102734.53;;;19.16;48.96
29359;BME280;16347;53.232;6.556;2022-07-17T02:35:43;102730.22;;;19.21;48.69
29359;BME280;16347;53.232;6.556;2022-07-17T02:38:11;102726.59;;;19.21;48.79
29359;BME280;16347;53.232;6.556;2022-07-17T02:40:43;102712.66;;;19.22;48.98
29359;BME280;16347;53.232;6.556;2022-07-17T02:43:12;102707.31;;;19.21;48.99
29359;BME280;16347;53.232;6.556;2022-07-17T02:45:40;102705.22;;;19.15;48.80
29359;BME280;16347;53.232;6.556;2022-07-17T02:48:09;102713.69;;;19.13;49.07
29359;BME280;16347;53.232;6.556;2022-07-17T02:50:38;102707.13;;;19.06;49.30
29359;BME280;16347;53.232;6.556;2022-07-17T02:53:06;102719.38;;;19.04;48.83
29359;BME280;16347;53.232;6.556;2022-07-17T02:55:34;102728.81;;;19.01;48.78
29359;BME280;16347;53.232;6.556;2022-07-17T02:58:03;102733.13;;;18.95;48.99
29359;BME280;16347;53.232;6.556;2022-07-17T03:00:33;102736.38;;;18.91;49.27
29359;BME280;16347;53.232;6.556;2022-07-17T03:03:01;102744.28;;;18.86;49.18
29359;BME280;16347;53.232;6.556;2022-07-17T03:05:31;102741.34;;;18.87;49.57
29359;BME280;16347;53.232;6.556;2022-07-17T03:07:59;102734.09;;;18.78;49.75
29359;BME280;16347;53.232;6.556;2022-07-17T03:10:27;102742.72;;;18.83;49.69
29359;BME280;16347;53.232;6.556;2022-07-17T03:12:55;102746.50;;;18.82;49.17
29359;BME280;16347;53.232;6.556;2022-07-17T03:15:23;102752.50;;;18.78;49.43
29359;BME280;16347;53.232;6.556;2022-07-17T03:17:52;102758.03;;;18.78;49.77
29359;BME280;16347;53.232;6.556;2022-07-17T03:20:20;102764.06;;;18.73;49.89
29359;BME280;16347;53.232;6.556;2022-07-17T03:22:50;102769.03;;;18.70;50.06
29359;BME280;16347;53.232;6.556;2022-07-17T03:25:18;102760.56;;;18.63;50.09
29359;BME280;16347;53.232;6.556;2022-07-17T03:27:46;102754.88;;;18.65;50.54
29359;BME280;16347;53.232;6.556;2022-07-17T03:30:14;102753.47;;;18.61;50.45
29359;BME280;16347;53.232;6.556;2022-07-17T03:32:45;102749.22;;;18.66;50.71
29359;BME280;16347;53.232;6.556;2022-07-17T03:35:14;102743.50;;;18.68;50.41
29359;BME280;16347;53.232;6.556;2022-07-17T03:37:43;102751.66;;;18.77;50.07
29359;BME280;16347;53.232;6.556;2022-07-17T03:40:13;102742.03;;;18.81;50.11
29359;BME280;16347;53.232;6.556;2022-07-17T03:42:44;102747.00;;;18.78;50.03
29359;BME280;16347;53.232;6.556;2022-07-17T03:45:13;102747.00;;;18.78;50.17
29359;BME280;16347;53.232;6.556;2022-07-17T03:47:41;102742.69;;;18.75;49.86
29359;BME280;16347;53.232;6.556;2022-07-17T03:50:09;102743.38;;;18.69;49.76
29359;BME280;16347;53.232;6.556;2022-07-17T03:52:37;102743.19;;;18.71;50.48
29359;BME280;16347;53.232;6.556;2022-07-17T03:55:06;102729.06;;;18.74;50.65
29359;BME280;16347;53.232;6.556;2022-07-17T03:57:35;102724.81;;;18.79;50.29
29359;BME280;16347;53.232;6.556;2022-07-17T04:00:04;102737.72;;;18.87;50.45
29359;BME280;16347;53.232;6.556;2022-07-17T04:02:42;102734.84;;;18.97;49.73
29359;BME280;16347;53.232;6.556;2022-07-17T04:05:11;102735.88;;;18.95;49.45
29359;BME280;16347;53.232;6.556;2022-07-17T04:07:40;102739.47;;;18.88;49.77
29359;BME280;16347;53.232;6.556;2022-07-17T04:10:10;102749.06;;;18.76;49.45
29359;BME280;16347;53.232;6.556;2022-07-17T04:12:40;102750.75;;;18.69;49.97
29359;BME280;16347;53.232;6.556;2022-07-17T04:15:10;102742.66;;;18.67;50.03
29359;BME280;16347;53.232;6.556;2022-07-17T04:17:38;102743.44;;;18.52;50.21
29359;BME280;16347;53.232;6.556;2022-07-17T04:20:07;102753.66;;;18.59;50.51
29359;BME280;16347;53.232;6.556;2022-07-17T04:22:35;102750.56;;;18.62;50.95
29359;BME280;16347;53.232;6.556;2022-07-17T04:25:03;102764.81;;;18.58;50.45
29359;BME280;16347;53.232;6.556;2022-07-17T04:27:31;102752.94;;;18.57;50.31
29359;BME280;16347;53.232;6.556;2022-07-17T04:30:01;102762.94;;;18.58;50.94
29359;BME280;16347;53.232;6.556;2022-07-17T04:32:29;102753.13;;;18.64;50.66
29359;BME280;16347;53.232;6.556;2022-07-17T04:34:57;102760.91;;;18.68;50.36
29359;BME280;16347;53.232;6.556;2022-07-17T04:37:25;102750.56;;;18.70;50.17
29359;BME280;16347;53.232;6.556;2022-07-17T04:39:54;102756.28;;;18.69;50.42
29359;BME280;16347;53.232;6.556;2022-07-17T04:42:22;102755.88;;;18.64;50.68
29359;BME280;16347;53.232;6.556;2022-07-17T04:44:50;102753.66;;;18.59;50.65
29359;BME280;16347;53.232;6.556;2022-07-17T04:47:20;102743.13;;;18.55;50.76
29359;BME280;16347;53.232;6.556;2022-07-17T04:49:48;102748.50;;;18.38;51.02
29359;BME280;16347;53.232;6.556;2022-07-17T04:52:16;102736.63;;;18.38;51.08
29359;BME280;16347;53.232;6.556;2022-07-17T04:54:44;102738.63;;;18.28;51.56
29359;BME280;16347;53.232;6.556;2022-07-17T04:57:13;102742.16;;;18.12;52.18
29359;BME280;16347;53.232;6.556;2022-07-17T04:59:41;102733.03;;;18.12;52.28
29359;BME280;16347;53.232;6.556;2022-07-17T05:02:09;102744.31;;;18.01;52.21
29359;BME280;16347;53.232;6.556;2022-07-17T05:04:39;102733.16;;;18.02;52.36
29359;BME280;16347;53.232;6.556;2022-07-17T05:07:07;102751.38;;;18.03;53.06
29359;BME280;16347;53.232;6.556;2022-07-17T05:09:36;102750.97;;;18.16;52.29
29359;BME280;16347;53.232;6.556;2022-07-17T05:12:04;102754.25;;;18.19;52.38
29359;BME280;16347;53.232;6.556;2022-07-17T05:14:33;102753.75;;;18.24;52.51
29359;BME280;16347;53.232;6.556;2022-07-17T05:17:02;102747.75;;;18.28;52.09
29359;BME280;16347;53.232;6.556;2022-07-17T05:19:30;102753.06;;;18.22;51.94
29359;BME280;16347;53.232;6.556;2022-07-17T05:21:59;102760.84;;;18.26;52.29
29359;BME280;16347;53.232;6.556;2022-07-17T05:24:28;102769.38;;;18.15;52.68
29359;BME280;16347;53.232;6.556;2022-07-17T05:26:56;102762.19;;;18.22;52.26
29359;BME280;16347;53.232;6.556;2022-07-17T05:29:24;102769.09;;;18.26;52.30
29359;BME280;16347;53.232;6.556;2022-07-17T05:31:52;102767.59;;;18.32;52.50
29359;BME280;16347;53.232;6.556;2022-07-17T05:34:20;102773.75;;;18.26;51.97
29359;BME280;16347;53.232;6.556;2022-07-17T05:36:48;102778.06;;;18.28;51.70
29359;BME280;16347;53.232;6.556;2022-07-17T05:39:18;102785.22;;;18.21;51.98
29359;BME280;16347;53.232;6.556;2022-07-17T05:41:46;102778.94;;;18.29;51.99
29359;BME280;16347;53.232;6.556;2022-07-17T05:44:14;102782.06;;;17.90;52.17
29359;BME280;16347;53.232;6.556;2022-07-17T05:46:42;102785.44;;;18.02;52.29
29359;BME280;16347;53.232;6.556;2022-07-17T05:49:10;102793.09;;;17.90;52.28
29359;BME280;16347;53.232;6.556;2022-07-17T05:51:38;102806.19;;;17.97;52.98
29359;BME280;16347;53.232;6.556;2022-07-17T05:54:06;102798.34;;;18.02;52.82
29359;BME280;16347;53.232;6.556;2022-07-17T05:56:36;102790.44;;;18.07;53.34
29359;BME280;16347;53.232;6.556;2022-07-17T05:59:04;102801.06;;;18.19;53.46
29359;BME280;16347;53.232;6.556;2022-07-17T06:01:32;102803.00;;;18.27;52.71
29359;BME280;16347;53.232;6.556;2022-07-17T06:04:00;102811.38;;;18.43;52.78
29359;BME280;16347;53.232;6.556;2022-07-17T06:06:28;102812.31;;;18.52;52.36
29359;BME280;16347;53.232;6.556;2022-07-17T06:08:57;102797.09;;;18.48;52.16
29359;BME280;16347;53.232;6.556;2022-07-17T06:11:26;102809.75;;;18.32;52.40
29359;BME280;16347;53.232;6.556;2022-07-17T06:14:06;102820.16;;;18.21;52.64
29359;BME280;16347;53.232;6.556;2022-07-17T06:16:38;102821.44;;;18.26;52.51
29359;BME280;16347;53.232;6.556;2022-07-17T06:19:11;102824.41;;;18.33;52.62
29359;BME280;16347;53.232;6.556;2022-07-17T06:21:42;102830.13;;;18.39;53.00
29359;BME280;16347;53.232;6.556;2022-07-17T06:24:12;102818.03;;;18.32;52.53
29359;BME280;16347;53.232;6.556;2022-07-17T06:26:43;102811.97;;;18.29;52.80
29359;BME280;16347;53.232;6.556;2022-07-17T06:29:15;102803.66;;;18.47;53.27
29359;BME280;16347;53.232;6.556;2022-07-17T06:31:45;102803.25;;;18.59;52.79
29359;BME280;16347;53.232;6.556;2022-07-17T06:34:16;102805.00;;;18.68;52.71
29359;BME280;16347;53.232;6.556;2022-07-17T06:36:47;102798.16;;;18.80;52.49
29359;BME280;16347;53.232;6.556;2022-07-17T06:39:18;102786.41;;;18.70;52.36
29359;BME280;16347;53.232;6.556;2022-07-17T06:41:50;102797.31;;;18.80;51.98
29359;BME280;16347;53.232;6.556;2022-07-17T06:44:23;102787.59;;;18.68;52.35
29359;BME280;16347;53.232;6.556;2022-07-17T06:46:54;102784.97;;;18.58;52.60
29359;BME280;16347;53.232;6.556;2022-07-17T06:49:26;102786.00;;;18.57;52.68
29359;BME280;16347;53.232;6.556;2022-07-17T06:51:55;102785.03;;;18.66;53.00
29359;BME280;16347;53.232;6.556;2022-07-17T06:54:25;102788.53;;;18.76;52.82
29359;BME280;16347;53.232;6.556;2022-07-17T06:56:54;102794.88;;;18.77;52.60
29359;BME280;16347;53.232;6.556;2022-07-17T06:59:27;102796.75;;;18.68;53.28
29359;BME280;16347;53.232;6.556;2022-07-17T07:01:58;102794.56;;;18.80;53.14
29359;BME280;16347;53.232;6.556;2022-07-17T07:04:29;102802.03;;;18.62;53.36
29359;BME280;16347;53.232;6.556;2022-07-17T07:06:58;102806.63;;;18.79;53.60
29359;BME280;16347;53.232;6.556;2022-07-17T07:09:29;102799.63;;;18.59;54.06
29359;BME280;16347;53.232;6.556;2022-07-17T07:12:00;102812.47;;;18.76;54.03
29359;BME280;16347;53.232;6.556;2022-07-17T07:14:32;102818.31;;;18.81;53.88
29359;BME280;16347;53.232;6.556;2022-07-17T07:17:02;102823.41;;;18.93;53.71
29359;BME280;16347;53.232;6.556;2022-07-17T07:19:33;102832.56;;;19.02;53.67
29359;BME280;16347;53.232;6.556;2022-07-17T07:22:03;102833.03;;;18.98;53.01
29359;BME280;16347;53.232;6.556;2022-07-17T07:24:33;102832.31;;;18.87;52.59
29359;BME280;16347;53.232;6.556;2022-07-17T07:27:04;102840.09;;;18.92;52.84
29359;BME280;16347;53.232;6.556;2022-07-17T07:29:35;102834.91;;;18.89;52.72
29359;BME280;16347;53.232;6.556;2022-07-17T07:32:06;102835.25;;;18.86;53.06
29359;BME280;16347;53.232;6.556;2022-07-17T07:34:38;102836.00;;;18.96;52.75
29359;BME280;16347;53.232;6.556;2022-07-17T07:37:10;102835.31;;;19.02;52.04
29359;BME280;16347;53.232;6.556;2022-07-17T07:39:40;102845.75;;;18.82;52.20
29359;BME280;16347;53.232;6.556;2022-07-17T07:42:11;102837.13;;;18.85;52.30
29359;BME280;16347;53.232;6.556;2022-07-17T07:44:42;102838.41;;;18.99;52.07
29359;BME280;16347;53.232;6.556;2022-07-17T07:47:12;102832.41;;;19.04;51.98
29359;BME280;16347;53.232;6.556;2022-07-17T07:49:43;102833.28;;;19.12;51.84
29359;BME280;16347;53.232;6.556;2022-07-17T07:52:14;102835.56;;;19.17;51.86
29359;BME280;16347;53.232;6.556;2022-07-17T07:54:45;102841.63;;;19.28;51.43
29359;BME280;16347;53.232;6.556;2022-07-17T07:57:15;102843.50;;;19.20;51.16
29359;BME280;16347;53.232;6.556;2022-07-17T07:59:46;102841.91;;;19.17;50.91
29359;BME280;16347;53.232;6.556;2022-07-17T08:02:17;102850.41;;;19.24;50.94
29359;BME280;16347;53.232;6.556;2022-07-17T08:04:46;102846.66;;;19.33;50.83
29359;BME280;16347;53.232;6.556;2022-07-17T08:07:14;102846.25;;;19.28;50.86
29359;BME280;16347;53.232;6.556;2022-07-17T08:09:43;102844.06;;;19.39;51.67
29359;BME280;16347;53.232;6.556;2022-07-17T08:12:11;102850.50;;;19.48;51.15
29359;BME280;16347;53.232;6.556;2022-07-17T08:15:04;102858.28;;;19.53;51.28
29359;BME280;16347;53.232;6.556;2022-07-17T08:17:34;102862.97;;;19.60;50.56
29359;BME280;16347;53.232;6.556;2022-07-17T08:20:03;102854.31;;;19.47;50.17
29359;BME280;16347;53.232;6.556;2022-07-17T08:22:40;102849.22;;;19.34;50.19
29359;BME280;16347;53.232;6.556;2022-07-17T08:25:31;102852.03;;;19.42;50.29
29359;BME280;16347;53.232;6.556;2022-07-17T08:28:04;102848.03;;;19.37;50.10
29359;BME280;16347;53.232;6.556;2022-07-17T08:30:41;102843.81;;;19.51;50.35
29359;BME280;16347;53.232;6.556;2022-07-17T08:33:10;102846.03;;;19.55;51.11
29359;BME280;16347;53.232;6.556;2022-07-17T08:35:43;102846.94;;;19.64;50.47
29359;BME280;16347;53.232;6.556;2022-07-17T08:38:13;102847.47;;;19.67;50.05
29359;BME280;16347;53.232;6.556;2022-07-17T08:40:46;102844.16;;;19.64;49.39
29359;BME280;16347;53.232;6.556;2022-07-17T08:43:16;102839.84;;;19.69;49.86
29359;BME280;16347;53.232;6.556;2022-07-17T08:45:48;102844.34;;;19.70;49.62
29359;BME280;16347;53.232;6.556;2022-07-17T08:48:19;102839.69;;;19.71;50.01
29359;BME280;16347;53.232;6.556;2022-07-17T08:50:48;102839.84;;;19.69;49.87
29359;BME280;16347;53.232;6.556;2022-07-17T08:53:18;102839.53;;;19.80;50.48
29359;BME280;16347;53.232;6.556;2022-07-17T08:55:51;102836.06;;;19.78;48.80
29359;BME280;16347;53.232;6.556;2022-07-17T08:58:23;102831.59;;;19.85;48.64
29359;BME280;16347;53.232;6.556;2022-07-17T09:00:54;102828.66;;;20.03;48.53
29359;BME280;16347;53.232;6.556;2022-07-17T09:03:24;102819.84;;;20.24;48.82
29359;BME280;16347;53.232;6.556;2022-07-17T09:05:53;102821.25;;;20.36;48.22
29359;BME280;16347;53.232;6.556;2022-07-17T09:08:25;102828.31;;;20.55;47.52
29359;BME280;16347;53.232;6.556;2022-07-17T09:11:05;102821.94;;;20.38;47.91
29359;BME280;16347;53.232;6.556;2022-07-17T09:13:37;102831.44;;;20.43;48.39
29359;BME280;16347;53.232;6.556;2022-07-17T09:16:12;102829.34;;;20.54;46.43
29359;BME280;16347;53.232;6.556;2022-07-17T09:18:44;102822.47;;;20.33;47.24
29359;BME280;16347;53.232;6.556;2022-07-17T09:21:19;102826.06;;;20.42;46.36
29359;BME280;16347;53.232;6.556;2022-07-17T09:23:58;102822.06;;;20.53;46.44
29359;BME280;16347;53.232;6.556;2022-07-17T09:26:34;102823.94;;;20.68;46.67
29359;BME280;16347;53.232;6.556;2022-07-17T09:29:05;102819.97;;;20.71;46.74
29359;BME280;16347;53.232;6.556;2022-07-17T09:31:36;102825.81;;;20.76;46.54
29359;BME280;16347;53.232;6.556;2022-07-17T09:34:05;102828.25;;;20.71;47.33
29359;BME280;16347;53.232;6.556;2022-07-17T09:36:34;102820.63;;;20.73;46.67
29359;BME280;16347;53.232;6.556;2022-07-17T09:39:05;102824.94;;;20.83;47.11
29359;BME280;16347;53.232;6.556;2022-07-17T09:41:37;102817.28;;;20.93;45.78
29359;BME280;16347;53.232;6.556;2022-07-17T09:44:06;102811.38;;;20.96;45.69
29359;BME280;16347;53.232;6.556;2022-07-17T09:46:41;102817.31;;;20.85;45.20
29359;BME280;16347;53.232;6.556;2022-07-17T09:49:18;102810.56;;;20.88;44.61
29359;BME280;16347;53.232;6.556;2022-07-17T09:51:48;102815.34;;;21.02;45.33
29359;BME280;16347;53.232;6.556;2022-07-17T09:54:21;102814.47;;;21.10;46.14
29359;BME280;16347;53.232;6.556;2022-07-17T09:56:51;102820.88;;;21.10;45.69
29359;BME280;16347;53.232;6.556;2022-07-17T09:59:20;102818.47;;;20.99;45.32
29359;BME280;16347;53.232;6.556;2022-07-17T10:01:51;102819.31;;;21.08;44.67
29359;BME280;16347;53.232;6.556;2022-07-17T10:04:21;102825.38;;;21.11;44.32
29359;BME280;16347;53.232;6.556;2022-07-17T10:06:51;102826.41;;;21.10;44.46
29359;BME280;16347;53.232;6.556;2022-07-17T10:09:21;102812.31;;;21.28;44.86
29359;BME280;16347;53.232;6.556;2022-07-17T10:11:51;102820.38;;;21.37;45.06
29359;BME280;16347;53.232;6.556;2022-07-17T10:14:22;102822.25;;;21.45;44.39
29359;BME280;16347;53.232;6.556;2022-07-17T10:17:05;102823.91;;;21.54;45.27
29359;BME280;16347;53.232;6.556;2022-07-17T10:19:46;102821.41;;;21.36;45.57
29359;BME280;16347;53.232;6.556;2022-07-17T10:22:16;102824.69;;;21.40;44.20
29359;BME280;16347;53.232;6.556;2022-07-17T10:24:48;102819.63;;;21.52;45.33
29359;BME280;16347;53.232;6.556;2022-07-17T10:27:25;102814.56;;;21.55;45.62
29359;BME280;16347;53.232;6.556;2022-07-17T10:30:01;102802.56;;;21.63;45.11
29359;BME280;16347;53.232;6.556;2022-07-17T10:32:36;102807.25;;;21.62;44.27
29359;BME280;16347;53.232;6.556;2022-07-17T10:35:07;102816.47;;;21.55;45.51
29359;BME280;16347;53.232;6.556;2022-07-17T10:37:40;102809.22;;;21.54;45.77
29359;BME280;16347;53.232;6.556;2022-07-17T10:40:11;102817.59;;;21.68;45.39
29359;BME280;16347;53.232;6.556;2022-07-17T10:42:56;102814.34;;;21.65;44.96
29359;BME280;16347;53.232;6.556;2022-07-17T10:45:33;102814.13;;;21.66;44.55
29359;BME280;16347;53.232;6.556;2022-07-17T10:48:09;102798.34;;;21.75;45.38
29359;BME280;16347;53.232;6.556;2022-07-17T10:50:40;102814.38;;;21.79;44.35
29359;BME280;16347;53.232;6.556;2022-07-17T10:53:15;102810.69;;;21.87;45.36
29359;BME280;16347;53.232;6.556;2022-07-17T10:55:53;102812.56;;;21.94;44.28
29359;BME280;16347;53.232;6.556;2022-07-17T10:58:26;102799.69;;;22.02;44.68
29359;BME280;16347;53.232;6.556;2022-07-17T11:01:00;102811.28;;;22.05;44.73
29359;BME280;16347;53.232;6.556;2022-07-17T11:03:35;102812.91;;;22.14;45.05
29359;BME280;16347;53.232;6.556;2022-07-17T11:06:12;102804.53;;;22.22;45.30
29359;BME280;16347;53.232;6.556;2022-07-17T11:08:47;102814.38;;;22.25;44.29
29359;BME280;16347;53.232;6.556;2022-07-17T11:11:18;102806.72;;;22.27;43.43
29359;BME280;16347;53.232;6.556;2022-07-17T11:14:08;102806.94;;;22.25;44.46
29359;BME280;16347;53.232;6.556;2022-07-17T11:16:45;102811.78;;;22.23;44.06
29359;BME280;16347;53.232;6.556;2022-07-17T11:19:24;102802.91;;;22.28;44.36
29359;BME280;16347;53.232;6.556;2022-07-17T11:21:55;102804.72;;;22.21;44.11
29359;BME280;16347;53.232;6.556;2022-07-17T11:24:24;102800.69;;;22.23;43.81
29359;BME280;16347;53.232;6.556;2022-07-17T11:26:53;102804.31;;;22.24;43.96
29359;BME280;16347;53.232;6.556;2022-07-17T11:29:35;102797.06;;;22.23;44.00
29359;BME280;16347;53.232;6.556;2022-07-17T11:32:05;102797.38;;;22.28;44.57
29359;BME280;16347;53.232;6.556;2022-07-17T11:34:38;102809.22;;;22.36;44.57
29359;BME280;16347;53.232;6.556;2022-07-17T11:37:13;102799.97;;;22.44;43.66
29359;BME280;16347;53.232;6.556;2022-07-17T11:39:51;102796.16;;;22.45;43.25
29359;BME280;16347;53.232;6.556;2022-07-17T11:42:24;102797.41;;;22.42;42.28
29359;BME280;16347;53.232;6.556;2022-07-17T11:44:56;102785.09;;;22.60;42.24
29359;BME280;16347;53.232;6.556;2022-07-17T11:47:31;102792.44;;;22.53;42.14
29359;BME280;16347;53.232;6.556;2022-07-17T11:50:08;102790.97;;;22.57;42.77
29359;BME280;16347;53.232;6.556;2022-07-17T11:52:42;102784.69;;;22.63;42.27
29359;BME280;16347;53.232;6.556;2022-07-17T11:55:13;102781.84;;;22.71;42.40
29359;BME280;16347;53.232;6.556;2022-07-17T11:57:47;102780.19;;;22.62;42.30
29359;BME280;16347;53.232;6.556;2022-07-17T12:00:20;102779.06;;;22.71;43.42
29359;BME280;16347;53.232;6.556;2022-07-17T12:02:59;102782.03;;;22.84;43.33
29359;BME280;16347;53.232;6.556;2022-07-17T12:05:32;102773.78;;;22.90;43.34
29359;BME280;16347;53.232;6.556;2022-07-17T12:08:01;102781.44;;;23.03;42.82
29359;BME280;16347;53.232;6.556;2022-07-17T12:10:31;102773.28;;;23.16;42.40
29359;BME280;16347;53.232;6.556;2022-07-17T12:13:03;102779.78;;;23.23;41.15
29359;BME280;16347;53.232;6.556;2022-07-17T12:15:37;102763.31;;;23.22;42.56
29359;BME280;16347;53.232;6.556;2022-07-17T12:18:18;102766.19;;;23.14;41.72
29359;BME280;16347;53.232;6.556;2022-07-17T12:20:49;102766.00;;;23.15;42.09
29359;BME280;16347;53.232;6.556;2022-07-17T12:23:29;102766.78;;;23.09;43.32
29359;BME280;16347;53.232;6.556;2022-07-17T12:26:05;102761.47;;;23.29;41.82
29359;BME280;16347;53.232;6.556;2022-07-17T12:28:35;102763.44;;;23.35;41.25
29359;BME280;16347;53.232;6.556;2022-07-17T12:31:11;102763.28;;;23.58;40.46
29359;BME280;16347;53.232;6.556;2022-07-17T12:33:45;102753.84;;;23.73;40.14
29359;BME280;16347;53.232;6.556;2022-07-17T12:36:16;102756.06;;;23.84;40.19
29359;BME280;16347;53.232;6.556;2022-07-17T12:38:47;102748.34;;;24.08;39.19
29359;BME280;16347;53.232;6.556;2022-07-17T12:41:18;102749.97;;;24.17;39.49
29359;BME280;16347;53.232;6.556;2022-07-17T12:43:53;102750.06;;;24.30;38.28
29359;BME280;16347;53.232;6.556;2022-07-17T12:46:26;102749.34;;;24.21;39.17
29359;BME280;16347;53.232;6.556;2022-07-17T12:49:00;102741.31;;;24.33;38.35
29359;BME280;16347;53.232;6.556;2022-07-17T12:51:41;102743.09;;;24.40;38.09
29359;BME280;16347;53.232;6.556;2022-07-17T12:54:15;102744.81;;;24.48;38.98
29359;BME280;16347;53.232;6.556;2022-07-17T12:56:47;102749.84;;;24.66;37.52
29359;BME280;16347;53.232;6.556;2022-07-17T12:59:20;102746.91;;;24.74;38.60
29359;BME280;16347;53.232;6.556;2022-07-17T13:01:54;102748.28;;;24.84;38.21
29359;BME280;16347;53.232;6.556;2022-07-17T13:04:25;102740.16;;;24.89;37.66
29359;BME280;16347;53.232;6.556;2022-07-17T13:06:56;102740.00;;;24.97;38.12
29359;BME280;16347;53.232;6.556;2022-07-17T13:09:30;102731.69;;;25.11;37.68